Prospect, Connecticut
Current Conditions -  °F | °C
As of 6:53 PM on Thursday 18 Dec 2014 (Local Time) from KMMK Reporting Station
Clear Clear  
Wind Chill: -3°   Ceiling: Unl
Heat Index:   Visibility: 10mi
Dew Point: -3°   Wind: 8mph
Humidity: 73%   Direction: 290°WNW
Pressure: 29.92"   Gusts: NA
Location:  41.5°N, 72.98°W
Report Text: KMMK 182353Z AUTO 29007KT 10SM CLR 01/M03 A2992 RMK AO2 SLP134 T00111033 10050 20011 51009 TSNO
Loading
Personal Weather Stations






























Interactive Weather Map New forecast layout! Learn more

10-Day Weather Forecast

Advertisements
Track Severe Weather on mobile